Wasson, Illinois
Current Conditions -  °F | °C
As of 8:15 PM on Friday 19 Dec 2014 (Local Time) from KHSB Reporting Station
Clear Clear  
Wind Chill: 30°   Ceiling: Unl
Heat Index: 34°   Visibility: 10mi
Dew Point: 28°   Wind: 5mph
Humidity: 78%   Direction: 70°ENE
Pressure: 30.27"   Gusts: NA
Location:  37.8101°N, 88.4411°W
Report Text: KHSB 200215Z AUTO 07004KT 10SM CLR 01/M02 A3027 RMK AO2 T00131021
Loading
Personal Weather Stations






























Interactive Weather Map New forecast layout! Learn more

10-Day Weather Forecast

Advertisements
Track Severe Weather on mobile